| time (UTC) | temp F | wind direction | speed knots | gust knots | rain 1hr in | rain 24hr in | rain mn in | humidity % | barometer mb |
| 20260504173049 | 76 | 217 | 0.0 | 4.3 | 0.00 | 0.00 | 0.00 | 41 | 1017.2 |
| 20260504171546 | 75 | 205 | 1.7 | 5.2 | 0.00 | 0.00 | 0.00 | 39 | 1017.0 |
| 20260504081552 | 56 | 217 | 0.0 | 0.0 | 0.00 | 0.00 | 0.00 | 92 | 1017.1 |
| 20260504080109 | 56 | 217 | 0.0 | 0.0 | 0.00 | 0.00 | 0.00 | 91 | 1017.4 |
| 20260504050022 | 56 | 217 | 0.0 | 0.0 | 0.00 | 0.00 | 0.00 | 91 | 1018.6 |
| 20260504044522 | 57 | 217 | 0.0 | 0.0 | 0.00 | 0.00 | 0.00 | 91 | 1018.5 |
| 20260504043022 | 57 | 217 | 0.0 | 0.0 | 0.00 | 0.00 | 0.00 | 90 | 1018.5 |
| 20260504041521 | 57 | 217 | 0.0 | 0.0 | 0.00 | 0.00 | 0.00 | 89 | 1018.6 |
| 20260504040037 | 57 | 217 | 0.0 | 0.0 | 0.00 | 0.00 | 0.00 | 88 | 1018.5 |
| 20260504034523 | 58 | 217 | 0.0 | 0.0 | 0.00 | 0.00 | 0.00 | 87 | 1018.5 |
| 20260504033022 | 58 | 217 | 0.0 | 0.0 | 0.00 | 0.00 | 0.00 | 86 | 1018.6 |
| 20260504031520 | 59 | 217 | 0.0 | 0.0 | 0.00 | 0.00 | 0.00 | 84 | 1018.6 |
| 20260504030019 | 59 | 217 | 0.0 | 0.0 | 0.00 | 0.00 | 0.00 | 82 | 1018.5 |
| 20260504024517 | 60 | 217 | 0.0 | 0.0 | 0.00 | 0.00 | 0.00 | 81 | 1018.4 |
| 20260504023018 | 60 | 217 | 0.0 | 0.0 | 0.00 | 0.00 | 0.00 | 79 | 1018.3 |
| 20260504021517 | 61 | 217 | 0.0 | 0.0 | 0.00 | 0.00 | 0.00 | 78 | 1018.3 |
| 20260504020020 | 61 | 217 | 0.0 | 0.0 | 0.00 | 0.00 | 0.00 | 75 | 1017.9 |
| 20260504014523 | 62 | 217 | 0.0 | 0.0 | 0.00 | 0.00 | 0.00 | 73 | 1017.8 |
| 20260504013017 | 63 | 217 | 0.0 | 0.0 | 0.00 | 0.00 | 0.00 | 71 | 1017.8 |
| 20260504011516 | 65 | 217 | 0.0 | 0.0 | 0.00 | 0.00 | 0.00 | 67 | 1017.6 |
| 20260504010015 | 66 | 217 | 0.0 | 0.0 | 0.00 | 0.00 | 0.00 | 65 | 1017.5 |
| 20260504004515 | 69 | 217 | 0.0 | 0.0 | 0.00 | 0.00 | 0.00 | 58 | 1017.5 |
| 20260504003014 | 70 | 217 | 0.0 | 0.0 | 0.00 | 0.00 | 0.00 | 54 | 1017.3 |
| 20260504001514 | 71 | 224 | 0.0 | 0.0 | 0.00 | 0.00 | 0.00 | 52 | 1017.3 |
| 20260504000013 | 72 | 229 | 0.0 | 0.0 | 0.00 | 0.00 | 0.00 | 50 | 1017.3 |
| 20260503234511 | 72 | 229 | 0.0 | 0.9 | 0.00 | 0.00 | 0.00 | 47 | 1017.4 |
| 20260503233010 | 72 | 229 | 0.0 | 0.0 | 0.00 | 0.00 | 0.00 | 47 | 1017.5 |
| 20260503231509 | 73 | 207 | 0.0 | 4.3 | 0.00 | 0.00 | 0.00 | 47 | 1017.6 |
| 20260503230009 | 73 | 204 | 0.9 | 4.3 | 0.00 | 0.00 | 0.00 | 45 | 1017.6 |
| 20260503224508 | 74 | 165 | 0.0 | 3.5 | 0.00 | 0.00 | 0.00 | 46 | 1017.6 |
| 20260503223006 | 75 | 165 | 0.0 | 4.3 | 0.00 | 0.00 | 0.00 | 43 | 1017.8 |
| 20260503221507 | 75 | 208 | 0.0 | 5.2 | 0.00 | 0.00 | 0.00 | 43 | 1017.7 |
| 20260503220004 | 77 | 227 | 0.0 | 0.0 | 0.00 | 0.00 | 0.00 | 39 | 1018.0 |
| 20260503214500 | 76 | 210 | 0.0 | 3.5 | 0.00 | 0.00 | 0.00 | 40 | 1018.3 |
| 20260503213100 | 76 | 165 | 0.9 | 5.2 | 0.00 | 0.00 | 0.00 | 41 | 1018.5 |
| 20260503211559 | 76 | 127 | 0.0 | 2.6 | 0.00 | 0.00 | 0.00 | 40 | 1018.7 |
| 20260503210057 | 75 | 249 | 0.0 | 4.3 | 0.00 | 0.00 | 0.00 | 43 | 1018.8 |
| 20260503204555 | 75 | 143 | 3.5 | 8.7 | 0.00 | 0.00 | 0.00 | 41 | 1018.9 |
| 20260503203053 | 75 | 229 | 0.9 | 2.6 | 0.00 | 0.00 | 0.00 | 41 | 1019.1 |
| 20260503201553 | 75 | 195 | 0.9 | 6.1 | 0.00 | 0.00 | 0.00 | 44 | 1019.3 |
| 20260503200057 | 75 | 217 | 1.7 | 7.0 | 0.00 | 0.00 | 0.00 | 41 | 1019.5 |
| 20260503194550 | 75 | 155 | 0.9 | 5.2 | 0.00 | 0.00 | 0.00 | 41 | 1019.7 |
| 20260503193057 | 76 | 216 | 0.0 | 1.7 | 0.00 | 0.00 | 0.00 | 41 | 1020.0 |
| 20260503191554 | 76 | 160 | 0.0 | 5.2 | 0.00 | 0.00 | 0.00 | 41 | 1020.1 |
| 20260503190049 | 76 | 187 | 0.9 | 4.3 | 0.00 | 0.00 | 0.00 | 39 | 1020.3 |
| 20260503184548 | 76 | 221 | 0.0 | 2.6 | 0.00 | 0.00 | 0.00 | 38 | 1020.5 |
| 20260503183106 | 76 | 217 | 0.0 | 0.0 | 0.00 | 0.00 | 0.00 | 38 | 1020.8 |
| 20260503181614 | 77 | 192 | 0.0 | 2.6 | 0.00 | 0.00 | 0.00 | 38 | 1020.9 |
| 20260503180047 | 77 | 91 | 0.0 | 4.3 | 0.00 | 0.00 | 0.00 | 33 | 1021.1 |
| 20260503174544 | 77 | 53 | 0.0 | 0.9 | 0.00 | 0.00 | 0.00 | 35 | 1021.2 |